createdAt,value
2023-05-14T00:01:10.115Z,101605.91
2023-05-14T00:03:12.140Z,101609.44
2023-05-14T00:05:13.732Z,101603.22
2023-05-14T00:07:15.163Z,101612.13
2023-05-14T00:09:16.718Z,101607.63
2023-05-14T00:11:18.200Z,101598.53
2023-05-14T00:13:19.719Z,101593.16
2023-05-14T00:15:21.406Z,101597.53
2023-05-14T00:17:22.900Z,101594.84
2023-05-14T00:19:24.515Z,101602.94
2023-05-14T00:21:26.358Z,101594.84
2023-05-14T00:23:27.803Z,101594.84
2023-05-14T00:25:29.421Z,101594.00
2023-05-14T00:27:30.883Z,101594.84
2023-05-14T00:29:32.512Z,101591.19
2023-05-14T00:31:34.010Z,101590.34
2023-05-14T00:33:35.620Z,101592.06
2023-05-14T00:35:37.356Z,101584.81
2023-05-14T00:37:39.046Z,101584.81
2023-05-14T00:39:40.560Z,101591.94
2023-05-14T00:41:42.028Z,101588.34
2023-05-14T00:43:43.519Z,101589.97
2023-05-14T00:45:45.111Z,101588.34
2023-05-14T00:47:47.360Z,101583.84
2023-05-14T00:49:49.061Z,101577.59
2023-05-14T00:51:50.774Z,101574.91
2023-05-14T00:53:53.304Z,101582.00
2023-05-14T00:55:54.816Z,101574.78
2023-05-14T00:57:57.964Z,101573.91
2023-05-14T00:59:59.516Z,101576.63
2023-05-14T01:02:01.085Z,101577.34
2023-05-14T01:04:02.943Z,101573.81
2023-05-14T01:06:07.377Z,101568.44
2023-05-14T01:08:15.863Z,101572.81
2023-05-14T01:10:33.081Z,101563.03
2023-05-14T01:12:40.251Z,101566.56
2023-05-14T01:15:01.865Z,101567.56
2023-05-14T01:17:04.694Z,101567.56
2023-05-14T01:19:10.410Z,101571.13
2023-05-14T01:21:30.344Z,101576.50
2023-05-14T01:23:31.818Z,101580.88
2023-05-14T01:25:33.773Z,101584.59
2023-05-14T01:27:38.538Z,101590.81
2023-05-14T01:29:42.164Z,101589.81
2023-05-14T01:31:45.513Z,101587.97
2023-05-14T01:33:48.443Z,101587.00
2023-05-14T01:35:50.858Z,101584.31
2023-05-14T01:37:54.616Z,101570.00
2023-05-14T01:39:56.497Z,101570.09
2023-05-14T01:41:58.939Z,101563.88
2023-05-14T01:44:00.452Z,101571.13
2023-05-14T01:46:02.351Z,101568.28
2023-05-14T01:48:06.582Z,101577.22
2023-05-14T01:50:08.213Z,101572.69
2023-05-14T01:52:09.725Z,101583.47
2023-05-14T01:54:11.145Z,101576.38
2023-05-14T01:56:12.660Z,101580.78
2023-05-14T01:58:14.071Z,101579.91
2023-05-14T02:00:15.848Z,101579.91
2023-05-14T02:02:17.519Z,101580.88
2023-05-14T02:04:20.719Z,101580.88
2023-05-14T02:06:22.174Z,101581.03
2023-05-14T02:08:23.716Z,101559.53
2023-05-14T02:10:25.506Z,101586.41
2023-05-14T02:12:27.176Z,101576.63
2023-05-14T02:14:28.788Z,101590.94
2023-05-14T02:16:30.347Z,101580.19
2023-05-14T02:18:31.964Z,101568.44
2023-05-14T02:20:33.586Z,101576.50
2023-05-14T02:22:35.069Z,101565.84
2023-05-14T02:24:36.489Z,101572.94
2023-05-14T02:26:37.976Z,101567.69
2023-05-14T02:28:39.423Z,101565.00
2023-05-14T02:30:41.005Z,101565.00
2023-05-14T02:32:42.622Z,101566.81
2023-05-14T02:34:44.184Z,101567.69
2023-05-14T02:36:45.656Z,101567.69
2023-05-14T02:38:47.089Z,101565.00
2023-05-14T02:40:48.760Z,101564.88
2023-05-14T02:42:50.233Z,101559.63
2023-05-14T02:44:52.270Z,101567.56
2023-05-14T02:46:53.744Z,101562.16
2023-05-14T02:48:55.233Z,101554.97
2023-05-14T02:50:56.854Z,101556.94
2023-05-14T02:52:58.262Z,101558.63
2023-05-14T02:54:59.794Z,101557.78
2023-05-14T02:57:01.221Z,101564.13
2023-05-14T02:59:02.722Z,101558.63
2023-05-14T03:01:04.582Z,101555.94
2023-05-14T03:03:06.267Z,101559.47
2023-05-14T03:05:08.534Z,101560.34
2023-05-14T03:07:10.151Z,101557.66
2023-05-14T03:09:11.911Z,101562.03
2023-05-14T03:11:13.387Z,101560.22
2023-05-14T03:13:19.999Z,101564.63
2023-05-14T03:15:21.464Z,101554.69
2023-05-14T03:17:23.013Z,101559.25
2023-05-14T03:19:24.498Z,101558.38
2023-05-14T03:21:26.188Z,101562.03
2023-05-14T03:23:27.847Z,101568.28
2023-05-14T03:25:29.477Z,101563.88
2023-05-14T03:27:30.908Z,101560.22
2023-05-14T03:29:32.401Z,101558.38
2023-05-14T03:31:34.146Z,101561.06
2023-05-14T03:33:35.782Z,101561.06
2023-05-14T03:35:37.183Z,101559.25
2023-05-14T03:37:38.676Z,101559.25
2023-05-14T03:39:40.110Z,101562.78
2023-05-14T03:41:41.659Z,101557.38
2023-05-14T03:43:43.075Z,101562.78
2023-05-14T03:45:44.587Z,101555.66
2023-05-14T03:47:46.041Z,101555.66
2023-05-14T03:49:47.564Z,101560.22
2023-05-14T03:51:49.095Z,101559.34
2023-05-14T03:53:50.593Z,101561.94
2023-05-14T03:55:52.087Z,101560.06
2023-05-14T03:57:53.503Z,101559.94
2023-05-14T03:59:54.918Z,101557.38
2023-05-14T04:01:56.386Z,101555.44
2023-05-14T04:03:58.102Z,101560.94
2023-05-14T04:05:59.634Z,101560.06
2023-05-14T04:08:01.574Z,101569.03
2023-05-14T04:10:04.737Z,101569.03
2023-05-14T04:12:06.732Z,101570.00
2023-05-14T04:14:08.239Z,101558.38
2023-05-14T04:16:09.839Z,101570.97
2023-05-14T04:18:11.470Z,101570.97
2023-05-14T04:20:13.007Z,101563.75
2023-05-14T04:22:14.409Z,101564.63
2023-05-14T04:24:16.874Z,101556.53
2023-05-14T04:26:18.531Z,101570.84
2023-05-14T04:28:19.925Z,101565.47
2023-05-14T04:30:21.773Z,101557.38
2023-05-14T04:32:23.347Z,101568.00
2023-05-14T04:34:27.654Z,101563.63
2023-05-14T04:36:29.122Z,101574.28
2023-05-14T04:38:31.739Z,101572.56
2023-05-14T04:40:33.241Z,101566.34
2023-05-14T04:42:34.679Z,101571.72
2023-05-14T04:44:36.619Z,101572.56
2023-05-14T04:46:38.124Z,101577.94
2023-05-14T04:48:39.545Z,101571.56
2023-05-14T04:50:40.966Z,101574.28
2023-05-14T04:52:42.431Z,101568.88
2023-05-14T04:54:43.851Z,101572.41
2023-05-14T04:56:45.601Z,101563.50
2023-05-14T04:58:47.151Z,101567.03
2023-05-14T05:00:48.837Z,101564.47
2023-05-14T05:02:50.737Z,101567.19
2023-05-14T05:04:52.147Z,101567.19
2023-05-14T05:06:53.640Z,101563.75
2023-05-14T05:08:55.188Z,101562.78
2023-05-14T05:10:56.627Z,101562.78
2023-05-14T05:12:58.046Z,101560.06
2023-05-14T05:14:59.513Z,101555.56
2023-05-14T05:17:00.976Z,101556.41
2023-05-14T05:19:02.450Z,101562.63
2023-05-14T05:21:03.896Z,101560.06
2023-05-14T05:23:05.405Z,101559.09
2023-05-14T05:25:08.062Z,101557.38
2023-05-14T05:27:09.512Z,101558.38
2023-05-14T05:29:10.969Z,101552.13
2023-05-14T05:31:12.703Z,101556.66
2023-05-14T05:33:14.209Z,101563.03
2023-05-14T05:35:15.656Z,101560.34
2023-05-14T05:37:17.133Z,101567.41
2023-05-14T05:39:18.602Z,101572.81
2023-05-14T05:41:20.099Z,101574.66
2023-05-14T05:43:21.554Z,101576.38
2023-05-14T05:45:23.084Z,101578.19
2023-05-14T05:47:24.589Z,101588.84
2023-05-14T05:49:26.126Z,101587.13
2023-05-14T05:51:27.636Z,101582.59
2023-05-14T05:53:29.123Z,101587.13
2023-05-14T05:55:30.726Z,101583.56
2023-05-14T05:57:32.359Z,101593.50
2023-05-14T05:59:33.836Z,101593.50
2023-05-14T06:01:35.364Z,101594.34
2023-05-14T06:03:36.983Z,101591.66
2023-05-14T06:05:38.493Z,101591.66
2023-05-14T06:07:40.038Z,101596.06
2023-05-14T06:09:41.516Z,101599.63
2023-05-14T06:11:43.018Z,101603.16
2023-05-14T06:13:44.720Z,101590.66
2023-05-14T06:15:46.175Z,101605.00
2023-05-14T06:17:48.034Z,101607.69
2023-05-14T06:19:49.611Z,101592.53
2023-05-14T06:21:51.035Z,101611.50
2023-05-14T06:23:52.457Z,101615.88
2023-05-14T06:25:54.012Z,101614.91
2023-05-14T06:27:55.417Z,101626.53
2023-05-14T06:29:56.975Z,101616.63
2023-05-14T06:32:01.811Z,101617.59
2023-05-14T06:34:03.420Z,101613.91
2023-05-14T06:36:05.864Z,101612.09
2023-05-14T06:38:07.368Z,101621.16
2023-05-14T06:40:09.099Z,101623.84
2023-05-14T06:42:10.622Z,101628.34
2023-05-14T06:44:12.085Z,101623.84
2023-05-14T06:46:13.534Z,101624.81
2023-05-14T06:48:15.293Z,101618.56
2023-05-14T06:50:16.932Z,101624.81
2023-05-14T06:52:18.678Z,101620.28
2023-05-14T06:54:20.606Z,101621.16
2023-05-14T06:56:22.352Z,101625.56
2023-05-14T06:58:23.740Z,101619.44
2023-05-14T07:00:25.569Z,101617.47
2023-05-14T07:02:27.478Z,101626.53
2023-05-14T07:04:28.989Z,101621.16
2023-05-14T07:06:30.833Z,101622.00
2023-05-14T07:08:32.226Z,101625.66
2023-05-14T07:10:33.836Z,101609.28
2023-05-14T07:12:35.591Z,101628.34
2023-05-14T07:14:37.096Z,101625.66
2023-05-14T07:16:38.676Z,101617.47
2023-05-14T07:18:40.384Z,101625.41
2023-05-14T07:20:41.834Z,101622.72
2023-05-14T07:22:43.228Z,101630.81
2023-05-14T07:24:44.818Z,101633.50
2023-05-14T07:26:46.251Z,101627.25
2023-05-14T07:28:47.710Z,101635.31
2023-05-14T07:30:49.164Z,101633.50
2023-05-14T07:32:50.615Z,101641.56
2023-05-14T07:34:52.296Z,101633.63
2023-05-14T07:36:53.957Z,101626.41
2023-05-14T07:38:55.586Z,101629.09
2023-05-14T07:40:57.007Z,101635.31
2023-05-14T07:42:58.431Z,101644.28
2023-05-14T07:44:59.990Z,101634.34
2023-05-14T07:47:01.518Z,101633.50
2023-05-14T07:49:03.071Z,101635.22
2023-05-14T07:51:04.464Z,101624.44
2023-05-14T07:53:06.095Z,101625.28
2023-05-14T07:55:07.616Z,101629.81
2023-05-14T07:57:09.103Z,101628.97
2023-05-14T07:59:10.632Z,101628.97
2023-05-14T08:01:12.767Z,101629.94
2023-05-14T08:03:14.413Z,101633.50
2023-05-14T08:05:16.610Z,101627.25
2023-05-14T08:07:18.052Z,101630.81
2023-05-14T08:09:19.410Z,101619.06
2023-05-14T08:11:22.396Z,101624.44
2023-05-14T08:13:23.961Z,101624.44
2023-05-14T08:15:27.560Z,101622.59
2023-05-14T08:17:29.986Z,101620.75
2023-05-14T08:19:31.460Z,101626.13
2023-05-14T08:21:33.084Z,101629.81
2023-05-14T08:23:34.688Z,101632.63
2023-05-14T08:25:36.179Z,101639.72
2023-05-14T08:27:37.644Z,101645.13
2023-05-14T08:29:39.076Z,101636.19
2023-05-14T08:31:40.539Z,101642.41
2023-05-14T08:33:42.105Z,101630.81
2023-05-14T08:35:43.739Z,101636.06
2023-05-14T08:37:45.512Z,101637.78
2023-05-14T08:39:46.998Z,101635.91
2023-05-14T08:41:48.568Z,101639.47
2023-05-14T08:43:52.833Z,101631.41
2023-05-14T08:45:57.725Z,101638.59
2023-05-14T08:47:59.525Z,101637.78
2023-05-14T08:50:02.340Z,101648.53
2023-05-14T08:52:04.135Z,101643.16
2023-05-14T08:54:05.619Z,101644.97
2023-05-14T08:56:08.481Z,101645.84
2023-05-14T08:58:09.952Z,101640.47
2023-05-14T09:00:12.023Z,101644.97
2023-05-14T09:02:15.063Z,101647.66
2023-05-14T09:04:19.522Z,101644.88
2023-05-14T09:06:21.611Z,101645.84
2023-05-14T09:08:23.154Z,101643.16
2023-05-14T09:10:24.942Z,101633.22
2023-05-14T09:12:26.572Z,101638.59
2023-05-14T09:14:28.080Z,101640.47
2023-05-14T09:16:29.665Z,101635.06
2023-05-14T09:18:31.497Z,101644.00
2023-05-14T09:20:33.198Z,101637.78
2023-05-14T09:22:34.850Z,101642.28
2023-05-14T09:24:36.388Z,101637.78
2023-05-14T09:26:37.827Z,101642.28
2023-05-14T09:28:43.412Z,101630.53
2023-05-14T09:30:52.120Z,101635.06
2023-05-14T09:32:54.584Z,101631.50
2023-05-14T09:34:56.384Z,101626.13
2023-05-14T09:36:58.969Z,101630.53
2023-05-14T09:39:00.910Z,101634.34
2023-05-14T09:41:02.562Z,101630.81
2023-05-14T09:43:04.060Z,101640.72
2023-05-14T09:45:06.853Z,101639.03
2023-05-14T09:47:08.429Z,101636.34
2023-05-14T09:49:09.987Z,101637.16
2023-05-14T09:51:11.640Z,101636.19
2023-05-14T09:53:13.735Z,101636.19
2023-05-14T09:55:16.030Z,101638.75
2023-05-14T09:57:17.505Z,101635.22
2023-05-14T09:59:19.025Z,101630.66
2023-05-14T10:01:21.933Z,101633.22
2023-05-14T10:03:25.156Z,101634.09
2023-05-14T10:05:27.295Z,101631.41
2023-05-14T10:07:31.472Z,101633.22
2023-05-14T10:09:32.961Z,101634.19
2023-05-14T10:11:36.901Z,101627.00
2023-05-14T10:13:40.508Z,101627.84
2023-05-14T10:15:49.220Z,101629.81
2023-05-14T10:17:55.588Z,101620.75
2023-05-14T10:19:57.261Z,101625.16
2023-05-14T10:22:04.983Z,101628.81
2023-05-14T10:24:07.443Z,101631.28
2023-05-14T10:26:09.130Z,101626.03
2023-05-14T10:28:11.627Z,101631.28
2023-05-14T10:30:13.497Z,101630.28
2023-05-14T10:32:16.387Z,101629.41
2023-05-14T10:34:33.427Z,101616.09
2023-05-14T10:36:35.498Z,101621.47
2023-05-14T10:38:37.438Z,101616.97
2023-05-14T10:40:38.954Z,101619.53
2023-05-14T10:42:42.460Z,101621.22
2023-05-14T10:44:58.538Z,101626.63
2023-05-14T10:47:00.290Z,101618.41
2023-05-14T10:49:01.873Z,101616.56
2023-05-14T10:51:03.459Z,101613.84
2023-05-14T10:53:04.920Z,101611.16
2023-05-14T10:55:10.282Z,101608.47
2023-05-14T10:57:11.825Z,101604.81
2023-05-14T10:59:13.652Z,101597.59
2023-05-14T11:01:15.489Z,101590.50
2023-05-14T11:03:18.241Z,101589.53
2023-05-14T11:05:19.807Z,101590.34
2023-05-14T11:07:24.128Z,101593.94
2023-05-14T11:09:25.672Z,101594.66
2023-05-14T11:11:27.233Z,101588.44
2023-05-14T11:13:28.839Z,101589.16
2023-05-14T11:15:31.017Z,101569.19
2023-05-14T11:17:32.663Z,101589.88
2023-05-14T11:19:34.109Z,101584.63
2023-05-14T11:21:35.707Z,101584.47
2023-05-14T11:23:37.313Z,101587.16
2023-05-14T11:25:38.822Z,101584.63
2023-05-14T11:27:40.807Z,101574.59
2023-05-14T11:29:48.676Z,101573.84
2023-05-14T11:31:51.317Z,101573.00
2023-05-14T11:33:53.518Z,101559.53
2023-05-14T11:35:55.194Z,101569.19
2023-05-14T11:37:56.630Z,101562.81
2023-05-14T11:39:59.649Z,101563.53
2023-05-14T11:42:02.702Z,101565.25
2023-05-14T11:44:04.604Z,101569.66
2023-05-14T11:46:06.052Z,101564.13
2023-05-14T11:48:15.038Z,101565.84
2023-05-14T11:50:16.952Z,101555.91
2023-05-14T11:52:22.064Z,101551.38
2023-05-14T11:54:25.279Z,101555.06
2023-05-14T11:56:26.716Z,101556.78
2023-05-14T11:58:28.300Z,101544.03
2023-05-14T12:00:31.268Z,101544.72
2023-05-14T12:02:32.827Z,101551.84
2023-05-14T12:04:34.437Z,101550.00
2023-05-14T12:06:35.896Z,101543.59
2023-05-14T12:08:37.711Z,101538.13
2023-05-14T12:10:42.627Z,101532.72
2023-05-14T12:12:46.050Z,101529.88
2023-05-14T12:14:48.213Z,101522.66
2023-05-14T12:16:51.076Z,101529.75
2023-05-14T12:18:52.544Z,101527.06
2023-05-14T12:20:54.082Z,101531.59
2023-05-14T12:22:55.544Z,101531.47
2023-05-14T12:24:57.908Z,101523.22
2023-05-14T12:27:01.483Z,101524.09
2023-05-14T12:29:03.632Z,101519.56
2023-05-14T12:31:05.287Z,101517.75
2023-05-14T12:33:07.126Z,101519.56
2023-05-14T12:35:09.144Z,101516.72
2023-05-14T12:37:10.588Z,101512.22
2023-05-14T12:39:12.223Z,101506.81
2023-05-14T12:41:13.687Z,101501.44
2023-05-14T12:43:15.312Z,101499.56
2023-05-14T12:45:16.787Z,101498.75
2023-05-14T12:47:18.396Z,101492.38
2023-05-14T12:49:20.006Z,101492.22
2023-05-14T12:51:21.517Z,101478.75
2023-05-14T12:53:23.098Z,101480.47
2023-05-14T12:55:24.588Z,101477.63
2023-05-14T12:57:27.744Z,101465.88
2023-05-14T12:59:29.300Z,101470.25
2023-05-14T13:01:30.839Z,101462.19
2023-05-14T13:03:32.593Z,101456.66
2023-05-14T13:05:34.198Z,101463.59
2023-05-14T13:07:36.183Z,101463.59
2023-05-14T13:09:37.783Z,101458.09
2023-05-14T13:11:39.178Z,101456.41
2023-05-14T13:13:41.032Z,101453.56
2023-05-14T13:15:42.573Z,101447.19
2023-05-14T13:17:44.293Z,101444.34
2023-05-14T13:19:45.842Z,101445.19
2023-05-14T13:21:47.318Z,101444.19
2023-05-14T13:23:48.835Z,101440.50
2023-05-14T13:25:50.741Z,101437.81
2023-05-14T13:27:52.286Z,101437.66
2023-05-14T13:29:53.728Z,101435.84
2023-05-14T13:31:55.327Z,101427.75
2023-05-14T13:33:58.131Z,101433.16
2023-05-14T13:35:59.890Z,101427.75
2023-05-14T13:38:01.371Z,101425.78
2023-05-14T13:40:04.409Z,101419.53
2023-05-14T13:42:06.066Z,101415.69
2023-05-14T13:44:07.961Z,101414.72
2023-05-14T13:46:09.662Z,101417.25
2023-05-14T13:48:11.522Z,101412.75
2023-05-14T13:50:14.057Z,101406.22
2023-05-14T13:52:15.588Z,101410.63
2023-05-14T13:54:17.088Z,101410.47
2023-05-14T13:56:18.654Z,101406.78
2023-05-14T13:58:20.158Z,101400.69
2023-05-14T14:00:21.925Z,101400.56
2023-05-14T14:02:23.422Z,101399.69
2023-05-14T14:04:29.149Z,101401.41
2023-05-14T14:06:32.015Z,101398.72
2023-05-14T14:08:33.508Z,101390.47
2023-05-14T14:10:36.445Z,101388.38
2023-05-14T14:12:37.892Z,101390.09
2023-05-14T14:14:39.318Z,101382.84
2023-05-14T14:16:41.048Z,101379.16
2023-05-14T14:18:43.260Z,101382.72
2023-05-14T14:20:44.960Z,101379.88
2023-05-14T14:22:46.542Z,101376.34
2023-05-14T14:24:47.961Z,101369.09
2023-05-14T14:26:49.467Z,101375.47
2023-05-14T14:28:50.956Z,101370.09
2023-05-14T14:30:52.563Z,101368.13
2023-05-14T14:32:54.106Z,101367.97
2023-05-14T14:34:55.651Z,101358.88
2023-05-14T14:36:57.063Z,101365.00
2023-05-14T14:38:58.814Z,101360.44
2023-05-14T14:41:02.972Z,101363.88
2023-05-14T14:43:04.368Z,101352.94
2023-05-14T14:45:06.201Z,101353.78
2023-05-14T14:47:07.654Z,101350.06
2023-05-14T14:49:09.362Z,101350.94
2023-05-14T14:51:10.851Z,101348.25
2023-05-14T14:53:12.337Z,101346.41
2023-05-14T14:55:13.810Z,101348.09
2023-05-14T14:57:15.238Z,101340.84
2023-05-14T14:59:17.194Z,101341.72
2023-05-14T15:01:19.030Z,101342.56
2023-05-14T15:03:21.359Z,101339.75
2023-05-14T15:05:23.240Z,101329.06
2023-05-14T15:07:24.812Z,101332.50
2023-05-14T15:09:26.238Z,101325.38
2023-05-14T15:11:28.906Z,101338.72
2023-05-14T15:13:30.408Z,101337.88
2023-05-14T15:15:41.039Z,101327.94
2023-05-14T15:17:42.419Z,101336.91
2023-05-14T15:19:43.887Z,101332.50
2023-05-14T15:21:45.535Z,101337.88
2023-05-14T15:23:46.995Z,101326.25
2023-05-14T15:25:49.429Z,101330.63
2023-05-14T15:27:52.830Z,101336.91
2023-05-14T15:29:54.254Z,101323.41
2023-05-14T15:31:55.869Z,101332.22
2023-05-14T15:33:57.358Z,101329.38
2023-05-14T15:35:58.884Z,101321.28
2023-05-14T15:38:00.416Z,101323.25
2023-05-14T15:40:01.933Z,101324.97
2023-05-14T15:42:04.468Z,101330.50
2023-05-14T15:44:06.197Z,101318.03
2023-05-14T15:46:07.710Z,101325.13
2023-05-14T15:48:09.279Z,101323.25
2023-05-14T15:50:10.894Z,101320.56
2023-05-14T15:52:12.565Z,101317.88
2023-05-14T15:54:14.127Z,101324.13
2023-05-14T15:56:16.060Z,101319.41
2023-05-14T15:58:17.580Z,101318.44
2023-05-14T16:00:19.549Z,101316.72
2023-05-14T16:02:21.112Z,101317.59
2023-05-14T16:04:22.590Z,101319.41
2023-05-14T16:06:24.218Z,101315.72
2023-05-14T16:08:25.676Z,101315.72
2023-05-14T16:10:27.296Z,101313.91
2023-05-14T16:12:28.916Z,101315.72
2023-05-14T16:14:30.538Z,101309.50
2023-05-14T16:16:32.149Z,101313.19
2023-05-14T16:18:33.845Z,101310.50
2023-05-14T16:20:35.279Z,101304.13
2023-05-14T16:22:36.788Z,101307.66
2023-05-14T16:24:38.278Z,101303.97
2023-05-14T16:26:40.006Z,101311.91
2023-05-14T16:28:42.761Z,101307.50
2023-05-14T16:30:44.193Z,101311.91
2023-05-14T16:32:49.309Z,101303.81
2023-05-14T16:34:51.120Z,101308.34
2023-05-14T16:36:52.716Z,101306.50
2023-05-14T16:39:06.682Z,101308.34
2023-05-14T16:41:12.214Z,101304.78
2023-05-14T16:43:13.644Z,101311.06
2023-05-14T16:45:15.260Z,101303.81
2023-05-14T16:47:16.843Z,101303.81
2023-05-14T16:49:22.254Z,101304.69
2023-05-14T16:51:23.769Z,101303.69
2023-05-14T16:53:25.404Z,101302.81
2023-05-14T16:55:26.892Z,101301.09
2023-05-14T16:57:29.153Z,101302.81
2023-05-14T16:59:30.634Z,101301.09
2023-05-14T17:01:32.239Z,101297.56
2023-05-14T17:03:33.692Z,101300.28
2023-05-14T17:05:35.359Z,101301.97
2023-05-14T17:07:37.270Z,101293.88
2023-05-14T17:09:39.019Z,101297.41
2023-05-14T17:11:40.551Z,101294.72
2023-05-14T17:13:42.260Z,101293.72
2023-05-14T17:15:43.875Z,101289.34
2023-05-14T17:17:45.331Z,101292.03
2023-05-14T17:19:46.998Z,101294.72
2023-05-14T17:21:48.422Z,101293.59
2023-05-14T17:23:49.893Z,101291.88
2023-05-14T17:25:51.385Z,101292.91
2023-05-14T17:27:53.093Z,101289.34
2023-05-14T17:29:54.599Z,101292.91
2023-05-14T17:31:56.103Z,101294.72
2023-05-14T17:33:57.673Z,101293.88
2023-05-14T17:35:59.175Z,101286.63
2023-05-14T17:38:00.822Z,101285.66
2023-05-14T17:40:03.168Z,101285.66
2023-05-14T17:42:04.847Z,101288.34
2023-05-14T17:44:06.453Z,101293.59
2023-05-14T17:46:08.168Z,101293.72
2023-05-14T17:48:09.593Z,101295.44
2023-05-14T17:50:11.352Z,101294.72
2023-05-14T17:52:13.194Z,101296.44
2023-05-14T17:54:14.774Z,101297.41
2023-05-14T17:56:18.354Z,101295.72
2023-05-14T17:58:19.958Z,101301.09
2023-05-14T18:00:21.406Z,101299.28
2023-05-14T18:02:22.823Z,101304.69
2023-05-14T18:04:24.368Z,101299.28
2023-05-14T18:06:26.057Z,101301.97
2023-05-14T18:08:27.514Z,101311.91
2023-05-14T18:10:29.656Z,101306.38
2023-05-14T18:12:31.182Z,101306.50
2023-05-14T18:14:32.622Z,101310.91
2023-05-14T18:16:34.346Z,101310.06
2023-05-14T18:18:36.058Z,101315.47
2023-05-14T18:20:37.544Z,101318.16
2023-05-14T18:22:39.033Z,101315.59
2023-05-14T18:24:40.441Z,101318.28
2023-05-14T18:26:41.930Z,101322.84
2023-05-14T18:28:43.729Z,101325.38
2023-05-14T18:30:45.577Z,101324.53
2023-05-14T18:32:47.164Z,101325.38
2023-05-14T18:34:48.783Z,101326.09
2023-05-14T18:36:50.933Z,101324.38
2023-05-14T18:38:52.396Z,101324.38
2023-05-14T18:40:53.880Z,101326.25
2023-05-14T18:42:56.671Z,101330.78
2023-05-14T18:44:58.133Z,101329.34
2023-05-14T18:46:59.608Z,101330.34
2023-05-14T18:49:01.005Z,101330.63
2023-05-14T18:51:02.595Z,101334.44
2023-05-14T18:53:04.070Z,101329.16
2023-05-14T18:55:05.990Z,101329.16
2023-05-14T18:57:07.701Z,101333.84
2023-05-14T18:59:09.688Z,101331.44
2023-05-14T19:01:11.225Z,101333.41
2023-05-14T19:03:12.968Z,101336.28
2023-05-14T19:05:14.419Z,101334.72
2023-05-14T19:07:15.842Z,101333.00
2023-05-14T19:09:21.017Z,101333.00
2023-05-14T19:11:22.674Z,101336.00
2023-05-14T19:13:24.213Z,101329.75
2023-05-14T19:15:26.071Z,101328.03
2023-05-14T19:17:28.969Z,101334.47
2023-05-14T19:19:30.735Z,101337.44
2023-05-14T19:21:32.249Z,101338.28
2023-05-14T19:23:33.691Z,101343.66
2023-05-14T19:25:35.205Z,101336.59
2023-05-14T19:27:37.602Z,101337.59
2023-05-14T19:29:39.073Z,101345.53
2023-05-14T19:31:40.650Z,101350.91
2023-05-14T19:33:42.161Z,101347.38
2023-05-14T19:35:43.768Z,101347.50
2023-05-14T19:37:45.852Z,101351.06
2023-05-14T19:39:47.286Z,101352.06
2023-05-14T19:41:48.891Z,101355.75
2023-05-14T19:43:50.378Z,101353.06
2023-05-14T19:45:52.248Z,101359.28
2023-05-14T19:47:54.081Z,101358.59
2023-05-14T19:49:55.572Z,101360.31
2023-05-14T19:51:57.032Z,101354.91
2023-05-14T19:53:58.441Z,101356.75
2023-05-14T19:56:00.777Z,101354.75
2023-05-14T19:58:02.267Z,101357.47
2023-05-14T20:00:04.594Z,101364.56
2023-05-14T20:02:06.179Z,101366.38
2023-05-14T20:04:07.695Z,101366.53
2023-05-14T20:06:09.190Z,101372.78
2023-05-14T20:08:11.715Z,101380.19
2023-05-14T20:10:14.095Z,101376.63
2023-05-14T20:12:16.705Z,101375.78
2023-05-14T20:14:18.153Z,101379.31
2023-05-14T20:16:19.714Z,101374.91
2023-05-14T20:18:23.772Z,101375.78
2023-05-14T20:20:25.655Z,101373.91
2023-05-14T20:22:27.338Z,101378.47
2023-05-14T20:24:28.800Z,101378.47
2023-05-14T20:26:30.235Z,101369.50
2023-05-14T20:28:31.766Z,101371.38
2023-05-14T20:30:33.281Z,101372.34
2023-05-14T20:32:34.775Z,101371.38
2023-05-14T20:34:36.231Z,101374.06
2023-05-14T20:36:37.688Z,101367.84
2023-05-14T20:38:40.853Z,101369.66
2023-05-14T20:40:42.342Z,101375.94
2023-05-14T20:42:43.841Z,101367.84
2023-05-14T20:44:45.510Z,101371.38
2023-05-14T20:46:47.054Z,101380.44
2023-05-14T20:48:48.753Z,101376.75
2023-05-14T20:50:50.425Z,101373.06
2023-05-14T20:52:51.862Z,101375.78
2023-05-14T20:54:53.324Z,101378.47
2023-05-14T20:56:54.740Z,101377.59
2023-05-14T20:58:56.308Z,101379.47
2023-05-14T21:00:58.644Z,101387.56
2023-05-14T21:03:01.410Z,101393.09
2023-05-14T21:05:03.140Z,101389.41
2023-05-14T21:07:05.203Z,101391.25
2023-05-14T21:09:06.672Z,101386.72
2023-05-14T21:11:08.567Z,101390.25
2023-05-14T21:13:10.163Z,101398.34
2023-05-14T21:15:12.138Z,101390.09
2023-05-14T21:17:13.687Z,101396.47
2023-05-14T21:19:15.587Z,101401.03
2023-05-14T21:21:17.176Z,101396.47
2023-05-14T21:23:19.808Z,101397.34
2023-05-14T21:25:21.375Z,101388.41
2023-05-14T21:27:23.071Z,101388.41
2023-05-14T21:29:24.611Z,101392.09
2023-05-14T21:31:26.102Z,101390.25
2023-05-14T21:33:27.672Z,101390.25
2023-05-14T21:35:29.347Z,101388.41
2023-05-14T21:37:31.082Z,101377.59
2023-05-14T21:39:32.612Z,101385.56
2023-05-14T21:41:33.994Z,101382.00
2023-05-14T21:43:35.580Z,101382.00
2023-05-14T21:45:37.192Z,101389.13
2023-05-14T21:47:38.741Z,101383.88
2023-05-14T21:49:40.276Z,101376.63
2023-05-14T21:51:42.802Z,101384.72
2023-05-14T21:53:44.328Z,101378.47
2023-05-14T21:55:46.003Z,101376.75
2023-05-14T21:57:47.440Z,101387.41
2023-05-14T21:59:48.836Z,101380.19
2023-05-14T22:02:06.068Z,101385.56
2023-05-14T22:04:08.290Z,101382.88
2023-05-14T22:06:10.199Z,101383.72
2023-05-14T22:08:11.726Z,101373.06
2023-05-14T22:10:13.920Z,101378.31
2023-05-14T22:12:15.462Z,101365.00
2023-05-14T22:14:17.238Z,101370.38
2023-05-14T22:16:18.777Z,101364.13
2023-05-14T22:18:20.359Z,101374.06
2023-05-14T22:20:21.794Z,101371.38
2023-05-14T22:22:23.286Z,101372.22
2023-05-14T22:24:24.866Z,101367.69
2023-05-14T22:26:26.354Z,101374.78
2023-05-14T22:28:27.825Z,101379.31
2023-05-14T22:30:29.250Z,101373.91
2023-05-14T22:32:30.678Z,101376.63
2023-05-14T22:34:32.432Z,101382.88
2023-05-14T22:36:33.883Z,101375.78
2023-05-14T22:38:35.448Z,101377.47
2023-05-14T22:40:36.887Z,101377.47
2023-05-14T22:42:38.293Z,101376.75
2023-05-14T22:44:39.783Z,101382.16
2023-05-14T22:46:41.365Z,101375.94
2023-05-14T22:48:42.804Z,101374.22
2023-05-14T22:50:44.301Z,101369.66
2023-05-14T22:52:45.706Z,101365.13
2023-05-14T22:54:49.408Z,101360.59
2023-05-14T22:56:51.470Z,101348.97
2023-05-14T22:58:52.929Z,101351.66
2023-05-14T23:00:54.312Z,101349.78
2023-05-14T23:02:55.818Z,101348.97
2023-05-14T23:04:57.280Z,101344.41
2023-05-14T23:06:58.858Z,101342.69
2023-05-14T23:09:00.266Z,101338.28
2023-05-14T23:11:01.702Z,101342.84
2023-05-14T23:13:03.869Z,101334.75